sensor_id;sensor_type;location;lat;lon;timestamp;temperature;humidity
35127;DHT22;21300;52.006;5.798;2022-08-11T00:00:13;22.30;53.70
35127;DHT22;21300;52.006;5.798;2022-08-11T00:02:45;22.30;53.80
35127;DHT22;21300;52.006;5.798;2022-08-11T00:05:15;22.30;53.90
35127;DHT22;21300;52.006;5.798;2022-08-11T00:07:49;22.20;53.90
35127;DHT22;21300;52.006;5.798;2022-08-11T00:10:20;22.20;54.60
35127;DHT22;21300;52.006;5.798;2022-08-11T00:12:52;22.20;54.10
35127;DHT22;21300;52.006;5.798;2022-08-11T00:15:18;22.20;54.20
35127;DHT22;21300;52.006;5.798;2022-08-11T00:17:45;22.10;54.20
35127;DHT22;21300;52.006;5.798;2022-08-11T00:20:13;22.10;54.20
35127;DHT22;21300;52.006;5.798;2022-08-11T00:22:41;22.10;54.30
35127;DHT22;21300;52.006;5.798;2022-08-11T00:25:10;22.00;54.30
35127;DHT22;21300;52.006;5.798;2022-08-11T00:30:21;22.00;54.50
35127;DHT22;21300;52.006;5.798;2022-08-11T00:32:55;21.90;54.50
35127;DHT22;21300;52.006;5.798;2022-08-11T00:35:26;21.80;54.50
35127;DHT22;21300;52.006;5.798;2022-08-11T00:37:54;21.80;54.60
35127;DHT22;21300;52.006;5.798;2022-08-11T00:40:36;21.80;54.70
35127;DHT22;21300;52.006;5.798;2022-08-11T00:48:54;21.70;54.90
35127;DHT22;21300;52.006;5.798;2022-08-11T00:51:51;21.70;55.00
35127;DHT22;21300;52.006;5.798;2022-08-11T00:54:31;21.70;55.00
35127;DHT22;21300;52.006;5.798;2022-08-11T01:00:18;21.60;55.10
35127;DHT22;21300;52.006;5.798;2022-08-11T01:20:57;21.40;55.50
35127;DHT22;21300;52.006;5.798;2022-08-11T01:35:13;21.30;55.80
35127;DHT22;21300;52.006;5.798;2022-08-11T01:46:17;21.10;55.90
35127;DHT22;21300;52.006;5.798;2022-08-11T01:48:53;21.10;56.00
35127;DHT22;21300;52.006;5.798;2022-08-11T01:52:24;21.10;56.10
35127;DHT22;21300;52.006;5.798;2022-08-11T01:54:41;21.00;56.10
35127;DHT22;21300;52.006;5.798;2022-08-11T02:00:10;21.00;56.20
35127;DHT22;21300;52.006;5.798;2022-08-11T02:11:21;20.90;56.50
35127;DHT22;21300;52.006;5.798;2022-08-11T02:19:41;20.80;56.60
35127;DHT22;21300;52.006;5.798;2022-08-11T02:22:48;20.80;56.70
35127;DHT22;21300;52.006;5.798;2022-08-11T02:25:42;20.80;56.80
35127;DHT22;21300;52.006;5.798;2022-08-11T02:34:14;20.70;56.90
35127;DHT22;21300;52.006;5.798;2022-08-11T02:36:57;20.70;56.90
35127;DHT22;21300;52.006;5.798;2022-08-11T02:39:35;20.60;56.90
35127;DHT22;21300;52.006;5.798;2022-08-11T02:42:32;20.60;57.00
35127;DHT22;21300;52.006;5.798;2022-08-11T02:45:29;20.60;57.10
35127;DHT22;21300;52.006;5.798;2022-08-11T02:48:39;20.50;57.00
35127;DHT22;21300;52.006;5.798;2022-08-11T02:52:04;20.60;57.20
35127;DHT22;21300;52.006;5.798;2022-08-11T02:57:35;20.50;57.30
35127;DHT22;21300;52.006;5.798;2022-08-11T03:00:11;20.50;57.30
35127;DHT22;21300;52.006;5.798;2022-08-11T03:02:56;20.40;57.30
35127;DHT22;21300;52.006;5.798;2022-08-11T03:05:38;20.40;57.30
35127;DHT22;21300;52.006;5.798;2022-08-11T03:08:30;20.40;57.40
35127;DHT22;21300;52.006;5.798;2022-08-11T03:17:20;20.30;57.50
35127;DHT22;21300;52.006;5.798;2022-08-11T03:26:09;20.30;57.70
35127;DHT22;21300;52.006;5.798;2022-08-11T03:29:15;20.20;57.70
35127;DHT22;21300;52.006;5.798;2022-08-11T03:31:45;20.20;57.70
35127;DHT22;21300;52.006;5.798;2022-08-11T03:34:21;20.20;57.80
35127;DHT22;21300;52.006;5.798;2022-08-11T03:37:17;20.20;57.90
35127;DHT22;21300;52.006;5.798;2022-08-11T03:40:14;20.10;57.90
35127;DHT22;21300;52.006;5.798;2022-08-11T03:48:12;20.10;58.00
35127;DHT22;21300;52.006;5.798;2022-08-11T03:53:54;20.00;58.00
35127;DHT22;21300;52.006;5.798;2022-08-11T04:25:01;19.00;61.20
35127;DHT22;21300;52.006;5.798;2022-08-11T04:36:21;18.70;62.20
35127;DHT22;21300;52.006;5.798;2022-08-11T04:45:11;18.50;64.00
35127;DHT22;21300;52.006;5.798;2022-08-11T04:48:20;18.40;64.90
35127;DHT22;21300;52.006;5.798;2022-08-11T04:51:53;18.30;65.00
35127;DHT22;21300;52.006;5.798;2022-08-11T05:12:41;18.10;64.60
35127;DHT22;21300;52.006;5.798;2022-08-11T05:15:12;18.10;65.60
35127;DHT22;21300;52.006;5.798;2022-08-11T05:18:14;18.20;65.80
35127;DHT22;21300;52.006;5.798;2022-08-11T05:21:07;18.20;66.40
35127;DHT22;21300;52.006;5.798;2022-08-11T05:24:06;18.20;66.10
35127;DHT22;21300;52.006;5.798;2022-08-11T05:26:53;18.20;65.90
35127;DHT22;21300;52.006;5.798;2022-08-11T05:32:32;18.10;65.80
35127;DHT22;21300;52.006;5.798;2022-08-11T05:35:29;18.20;66.50
35127;DHT22;21300;52.006;5.798;2022-08-11T05:37:56;18.10;67.30
35127;DHT22;21300;52.006;5.798;2022-08-11T05:40:47;18.10;66.80
35127;DHT22;21300;52.006;5.798;2022-08-11T05:43:33;18.10;67.30
35127;DHT22;21300;52.006;5.798;2022-08-11T05:46:23;18.10;68.00
35127;DHT22;21300;52.006;5.798;2022-08-11T05:49:08;18.20;68.50
35127;DHT22;21300;52.006;5.798;2022-08-11T05:51:53;18.10;68.30
35127;DHT22;21300;52.006;5.798;2022-08-11T05:54:38;18.20;69.00
35127;DHT22;21300;52.006;5.798;2022-08-11T05:57:24;18.20;69.00
35127;DHT22;21300;52.006;5.798;2022-08-11T06:00:01;18.20;68.60
35127;DHT22;21300;52.006;5.798;2022-08-11T06:02:29;18.20;68.90
35127;DHT22;21300;52.006;5.798;2022-08-11T06:04:56;18.20;68.90
35127;DHT22;21300;52.006;5.798;2022-08-11T06:07:30;18.20;69.30
35127;DHT22;21300;52.006;5.798;2022-08-11T06:09:58;18.20;69.00
35127;DHT22;21300;52.006;5.798;2022-08-11T06:12:28;18.20;69.80
35127;DHT22;21300;52.006;5.798;2022-08-11T06:15:00;18.30;70.30
35127;DHT22;21300;52.006;5.798;2022-08-11T06:17:28;18.30;69.40
35127;DHT22;21300;52.006;5.798;2022-08-11T06:20:03;18.30;69.80
35127;DHT22;21300;52.006;5.798;2022-08-11T06:22:31;18.40;70.10
35127;DHT22;21300;52.006;5.798;2022-08-11T06:25:01;18.40;69.70
35127;DHT22;21300;52.006;5.798;2022-08-11T06:30:15;18.50;70.50
35127;DHT22;21300;52.006;5.798;2022-08-11T06:33:00;18.60;70.00
35127;DHT22;21300;52.006;5.798;2022-08-11T06:35:52;18.60;69.80
35127;DHT22;21300;52.006;5.798;2022-08-11T06:41:24;18.70;69.00
35127;DHT22;21300;52.006;5.798;2022-08-11T06:46:42;18.80;69.80
35127;DHT22;21300;52.006;5.798;2022-08-11T06:49:13;18.90;70.10
35127;DHT22;21300;52.006;5.798;2022-08-11T06:52:07;18.90;69.00
35127;DHT22;21300;52.006;5.798;2022-08-11T06:54:41;19.00;69.50
35127;DHT22;21300;52.006;5.798;2022-08-11T06:57:12;19.10;69.20
35127;DHT22;21300;52.006;5.798;2022-08-11T06:59:58;19.20;68.80
35127;DHT22;21300;52.006;5.798;2022-08-11T07:02:52;19.30;68.00
35127;DHT22;21300;52.006;5.798;2022-08-11T07:05:45;19.40;67.40
35127;DHT22;21300;52.006;5.798;2022-08-11T07:12:06;19.50;67.00
35127;DHT22;21300;52.006;5.798;2022-08-11T07:14:57;19.60;66.10
35127;DHT22;21300;52.006;5.798;2022-08-11T07:17:50;19.60;64.40
35127;DHT22;21300;52.006;5.798;2022-08-11T07:20:37;19.60;64.70
35127;DHT22;21300;52.006;5.798;2022-08-11T07:23:22;19.60;64.00
35127;DHT22;21300;52.006;5.798;2022-08-11T07:26:06;19.70;63.70
35127;DHT22;21300;52.006;5.798;2022-08-11T07:28:54;19.80;63.40
35127;DHT22;21300;52.006;5.798;2022-08-11T07:31:32;19.90;63.80
35127;DHT22;21300;52.006;5.798;2022-08-11T07:34:30;20.00;62.50
35127;DHT22;21300;52.006;5.798;2022-08-11T07:36:59;20.10;60.80
35127;DHT22;21300;52.006;5.798;2022-08-11T07:39:29;20.20;60.20
35127;DHT22;21300;52.006;5.798;2022-08-11T07:41:57;20.30;59.60
35127;DHT22;21300;52.006;5.798;2022-08-11T07:44:27;20.30;59.40
35127;DHT22;21300;52.006;5.798;2022-08-11T07:46:56;20.30;59.30
35127;DHT22;21300;52.006;5.798;2022-08-11T07:49:44;20.30;59.40
35127;DHT22;21300;52.006;5.798;2022-08-11T07:52:33;20.40;58.70
35127;DHT22;21300;52.006;5.798;2022-08-11T07:55:05;20.50;58.40
35127;DHT22;21300;52.006;5.798;2022-08-11T07:57:32;20.60;58.50
35127;DHT22;21300;52.006;5.798;2022-08-11T08:00:18;20.70;58.50
35127;DHT22;21300;52.006;5.798;2022-08-11T08:03:04;20.80;57.90
35127;DHT22;21300;52.006;5.798;2022-08-11T08:05:49;20.90;57.80
35127;DHT22;21300;52.006;5.798;2022-08-11T08:08:35;20.90;57.60
35127;DHT22;21300;52.006;5.798;2022-08-11T08:11:22;21.00;57.40
35127;DHT22;21300;52.006;5.798;2022-08-11T08:14:07;21.00;56.80
35127;DHT22;21300;52.006;5.798;2022-08-11T08:16:53;21.10;56.70
35127;DHT22;21300;52.006;5.798;2022-08-11T08:19:39;21.10;56.50
35127;DHT22;21300;52.006;5.798;2022-08-11T08:22:10;21.30;55.80
35127;DHT22;21300;52.006;5.798;2022-08-11T08:24:37;21.40;55.70
35127;DHT22;21300;52.006;5.798;2022-08-11T08:27:03;21.50;55.30
35127;DHT22;21300;52.006;5.798;2022-08-11T08:29:33;21.60;54.90
35127;DHT22;21300;52.006;5.798;2022-08-11T08:32:19;21.60;54.90
35127;DHT22;21300;52.006;5.798;2022-08-11T08:34:48;21.40;56.00
35127;DHT22;21300;52.006;5.798;2022-08-11T08:37:18;21.40;55.30
35127;DHT22;21300;52.006;5.798;2022-08-11T08:39:47;21.40;55.50
35127;DHT22;21300;52.006;5.798;2022-08-11T08:42:17;21.40;55.80
35127;DHT22;21300;52.006;5.798;2022-08-11T08:44:46;21.40;56.40
35127;DHT22;21300;52.006;5.798;2022-08-11T08:47:17;21.40;56.00
35127;DHT22;21300;52.006;5.798;2022-08-11T08:49:50;21.40;56.40
35127;DHT22;21300;52.006;5.798;2022-08-11T08:52:22;21.40;56.20
35127;DHT22;21300;52.006;5.798;2022-08-11T08:54:51;21.50;57.00
35127;DHT22;21300;52.006;5.798;2022-08-11T08:57:21;21.50;56.40
35127;DHT22;21300;52.006;5.798;2022-08-11T08:59:47;21.50;56.70
35127;DHT22;21300;52.006;5.798;2022-08-11T09:02:14;21.60;56.80
35127;DHT22;21300;52.006;5.798;2022-08-11T09:04:43;21.70;56.00
35127;DHT22;21300;52.006;5.798;2022-08-11T09:07:11;21.70;55.50
35127;DHT22;21300;52.006;5.798;2022-08-11T09:09:49;21.80;56.00
35127;DHT22;21300;52.006;5.798;2022-08-11T09:12:18;21.80;56.10
35127;DHT22;21300;52.006;5.798;2022-08-11T09:14:48;21.80;56.40
35127;DHT22;21300;52.006;5.798;2022-08-11T09:20:18;22.00;55.30
35127;DHT22;21300;52.006;5.798;2022-08-11T09:22:45;22.10;54.40
35127;DHT22;21300;52.006;5.798;2022-08-11T09:25:31;22.20;54.20
35127;DHT22;21300;52.006;5.798;2022-08-11T09:28:17;22.20;54.30
35127;DHT22;21300;52.006;5.798;2022-08-11T09:30:46;22.30;54.60
35127;DHT22;21300;52.006;5.798;2022-08-11T09:33:15;22.30;55.30
35127;DHT22;21300;52.006;5.798;2022-08-11T09:35:42;22.40;53.80
35127;DHT22;21300;52.006;5.798;2022-08-11T09:38:13;22.40;54.60
35127;DHT22;21300;52.006;5.798;2022-08-11T09:41:18;22.50;54.70
35127;DHT22;21300;52.006;5.798;2022-08-11T09:43:45;22.50;54.10
35127;DHT22;21300;52.006;5.798;2022-08-11T09:46:29;22.60;54.40
35127;DHT22;21300;52.006;5.798;2022-08-11T09:48:58;22.70;54.30
35127;DHT22;21300;52.006;5.798;2022-08-11T09:51:29;22.60;55.20
35127;DHT22;21300;52.006;5.798;2022-08-11T09:53:58;22.70;53.30
35127;DHT22;21300;52.006;5.798;2022-08-11T09:56:25;22.80;53.50
35127;DHT22;21300;52.006;5.798;2022-08-11T09:59:11;22.90;54.30
35127;DHT22;21300;52.006;5.798;2022-08-11T10:01:56;22.90;54.60
35127;DHT22;21300;52.006;5.798;2022-08-11T10:04:35;23.00;53.70
35127;DHT22;21300;52.006;5.798;2022-08-11T10:07:04;23.10;53.50
35127;DHT22;21300;52.006;5.798;2022-08-11T10:09:45;23.20;52.70
35127;DHT22;21300;52.006;5.798;2022-08-11T10:12:19;23.20;52.60
35127;DHT22;21300;52.006;5.798;2022-08-11T10:14:47;23.30;51.20
35127;DHT22;21300;52.006;5.798;2022-08-11T10:17:40;23.40;50.40
35127;DHT22;21300;52.006;5.798;2022-08-11T10:20:29;23.40;50.70
35127;DHT22;21300;52.006;5.798;2022-08-11T10:22:57;23.50;50.70
35127;DHT22;21300;52.006;5.798;2022-08-11T10:25:42;23.60;50.70
35127;DHT22;21300;52.006;5.798;2022-08-11T10:28:28;23.60;49.70
35127;DHT22;21300;52.006;5.798;2022-08-11T10:30:54;23.70;50.00
35127;DHT22;21300;52.006;5.798;2022-08-11T10:33:40;23.80;50.00
35127;DHT22;21300;52.006;5.798;2022-08-11T10:38:57;23.80;49.30
35127;DHT22;21300;52.006;5.798;2022-08-11T10:41:25;23.90;49.60
35127;DHT22;21300;52.006;5.798;2022-08-11T10:44:10;24.00;49.10
35127;DHT22;21300;52.006;5.798;2022-08-11T10:46:37;24.10;49.40
35127;DHT22;21300;52.006;5.798;2022-08-11T10:49:22;24.10;50.50
35127;DHT22;21300;52.006;5.798;2022-08-11T10:51:49;24.10;49.80
35127;DHT22;21300;52.006;5.798;2022-08-11T10:54:35;24.20;50.70
35127;DHT22;21300;52.006;5.798;2022-08-11T10:57:19;24.20;51.30
35127;DHT22;21300;52.006;5.798;2022-08-11T11:00:05;24.30;49.50
35127;DHT22;21300;52.006;5.798;2022-08-11T11:02:31;24.30;50.50
35127;DHT22;21300;52.006;5.798;2022-08-11T11:05:21;24.40;50.20
35127;DHT22;21300;52.006;5.798;2022-08-11T11:07:56;24.50;49.90
35127;DHT22;21300;52.006;5.798;2022-08-11T11:10:25;24.50;50.20
35127;DHT22;21300;52.006;5.798;2022-08-11T11:12:56;24.60;50.70
35127;DHT22;21300;52.006;5.798;2022-08-11T11:15:44;24.60;49.90
35127;DHT22;21300;52.006;5.798;2022-08-11T11:18:36;24.60;51.00
35127;DHT22;21300;52.006;5.798;2022-08-11T11:21:06;24.80;51.10
35127;DHT22;21300;52.006;5.798;2022-08-11T11:29:00;24.90;50.40
35127;DHT22;21300;52.006;5.798;2022-08-11T11:36:59;25.10;51.10
35127;DHT22;21300;52.006;5.798;2022-08-11T11:39:27;25.10;51.10
35127;DHT22;21300;52.006;5.798;2022-08-11T11:41:59;25.20;50.90
35127;DHT22;21300;52.006;5.798;2022-08-11T11:44:27;25.20;50.50
35127;DHT22;21300;52.006;5.798;2022-08-11T11:46:54;25.30;50.80
35127;DHT22;21300;52.006;5.798;2022-08-11T11:49:24;25.30;50.50
35127;DHT22;21300;52.006;5.798;2022-08-11T11:51:51;25.40;50.70
35127;DHT22;21300;52.006;5.798;2022-08-11T11:54:23;25.40;50.30
35127;DHT22;21300;52.006;5.798;2022-08-11T11:56:50;25.50;50.10
35127;DHT22;21300;52.006;5.798;2022-08-11T11:59:22;25.50;49.30
35127;DHT22;21300;52.006;5.798;2022-08-11T12:02:09;25.60;50.20
35127;DHT22;21300;52.006;5.798;2022-08-11T12:04:37;25.60;49.70
35127;DHT22;21300;52.006;5.798;2022-08-11T12:07:06;25.70;49.90
35127;DHT22;21300;52.006;5.798;2022-08-11T12:09:51;25.70;49.50
35127;DHT22;21300;52.006;5.798;2022-08-11T12:12:17;25.70;49.20
35127;DHT22;21300;52.006;5.798;2022-08-11T12:15:02;25.80;48.90
35127;DHT22;21300;52.006;5.798;2022-08-11T12:17:28;25.80;49.30
35127;DHT22;21300;52.006;5.798;2022-08-11T12:19:53;25.90;49.40
35127;DHT22;21300;52.006;5.798;2022-08-11T12:22:19;25.90;48.50
35127;DHT22;21300;52.006;5.798;2022-08-11T12:25:04;26.00;45.00
35127;DHT22;21300;52.006;5.798;2022-08-11T12:27:49;26.00;47.80
35127;DHT22;21300;52.006;5.798;2022-08-11T12:30:15;26.00;47.50
35127;DHT22;21300;52.006;5.798;2022-08-11T12:32:41;26.10;45.20
35127;DHT22;21300;52.006;5.798;2022-08-11T12:35:08;26.10;47.20
35127;DHT22;21300;52.006;5.798;2022-08-11T12:37:40;26.10;47.30
35127;DHT22;21300;52.006;5.798;2022-08-11T12:40:13;26.20;46.20
35127;DHT22;21300;52.006;5.798;2022-08-11T12:43:02;26.20;47.10
35127;DHT22;21300;52.006;5.798;2022-08-11T12:45:49;26.20;46.70
35127;DHT22;21300;52.006;5.798;2022-08-11T12:48:19;26.30;45.30
35127;DHT22;21300;52.006;5.798;2022-08-11T12:51:10;26.30;47.00
35127;DHT22;21300;52.006;5.798;2022-08-11T12:54:00;26.40;46.30
35127;DHT22;21300;52.006;5.798;2022-08-11T12:56:32;26.40;46.00
35127;DHT22;21300;52.006;5.798;2022-08-11T12:59:20;26.50;45.10
35127;DHT22;21300;52.006;5.798;2022-08-11T13:02:08;26.50;45.00
35127;DHT22;21300;52.006;5.798;2022-08-11T13:04:53;26.50;44.70
35127;DHT22;21300;52.006;5.798;2022-08-11T13:07:29;26.60;45.20
35127;DHT22;21300;52.006;5.798;2022-08-11T13:09:57;26.50;45.30
35127;DHT22;21300;52.006;5.798;2022-08-11T13:12:24;26.50;45.60
35127;DHT22;21300;52.006;5.798;2022-08-11T13:15:13;26.60;45.50
35127;DHT22;21300;52.006;5.798;2022-08-11T13:17:39;26.60;45.10
35127;DHT22;21300;52.006;5.798;2022-08-11T13:20:08;26.60;43.70
35127;DHT22;21300;52.006;5.798;2022-08-11T13:22:35;26.70;44.90
35127;DHT22;21300;52.006;5.798;2022-08-11T13:25:03;26.70;44.50
35127;DHT22;21300;52.006;5.798;2022-08-11T13:27:29;26.70;44.70
35127;DHT22;21300;52.006;5.798;2022-08-11T13:29:55;26.70;44.70
35127;DHT22;21300;52.006;5.798;2022-08-11T13:32:41;26.70;45.90
35127;DHT22;21300;52.006;5.798;2022-08-11T13:35:08;26.70;45.60
35127;DHT22;21300;52.006;5.798;2022-08-11T13:37:37;26.80;45.50
35127;DHT22;21300;52.006;5.798;2022-08-11T13:40:04;26.80;44.00
35127;DHT22;21300;52.006;5.798;2022-08-11T13:42:30;26.90;38.90
35127;DHT22;21300;52.006;5.798;2022-08-11T13:44:56;27.00;41.40
35127;DHT22;21300;52.006;5.798;2022-08-11T13:47:23;27.00;42.10
35127;DHT22;21300;52.006;5.798;2022-08-11T13:49:49;26.90;42.70
35127;DHT22;21300;52.006;5.798;2022-08-11T13:52:16;26.90;43.60
35127;DHT22;21300;52.006;5.798;2022-08-11T13:54:46;26.90;43.00
35127;DHT22;21300;52.006;5.798;2022-08-11T13:57:13;27.00;41.50
35127;DHT22;21300;52.006;5.798;2022-08-11T13:59:41;27.10;40.20
35127;DHT22;21300;52.006;5.798;2022-08-11T14:02:15;27.20;39.40
35127;DHT22;21300;52.006;5.798;2022-08-11T14:04:58;27.20;40.80
35127;DHT22;21300;52.006;5.798;2022-08-11T14:07:32;27.20;39.80
35127;DHT22;21300;52.006;5.798;2022-08-11T14:10:00;27.30;38.80
35127;DHT22;21300;52.006;5.798;2022-08-11T14:12:28;27.30;38.40
35127;DHT22;21300;52.006;5.798;2022-08-11T14:15:23;27.30;37.60
35127;DHT22;21300;52.006;5.798;2022-08-11T14:18:02;27.30;39.50
35127;DHT22;21300;52.006;5.798;2022-08-11T14:20:41;27.30;39.50
35127;DHT22;21300;52.006;5.798;2022-08-11T14:23:34;27.30;39.70
35127;DHT22;21300;52.006;5.798;2022-08-11T14:26:02;27.30;40.30
35127;DHT22;21300;52.006;5.798;2022-08-11T14:28:46;27.30;40.80
35127;DHT22;21300;52.006;5.798;2022-08-11T14:31:14;27.30;41.40
35127;DHT22;21300;52.006;5.798;2022-08-11T14:33:40;27.30;40.50
35127;DHT22;21300;52.006;5.798;2022-08-11T14:36:08;27.30;40.30
35127;DHT22;21300;52.006;5.798;2022-08-11T14:38:37;27.30;40.80
35127;DHT22;21300;52.006;5.798;2022-08-11T14:41:04;27.30;40.50
35127;DHT22;21300;52.006;5.798;2022-08-11T14:43:49;27.40;39.30
35127;DHT22;21300;52.006;5.798;2022-08-11T14:46:34;27.40;38.20
35127;DHT22;21300;52.006;5.798;2022-08-11T14:49:19;27.40;39.40
35127;DHT22;21300;52.006;5.798;2022-08-11T14:51:47;27.50;38.60
35127;DHT22;21300;52.006;5.798;2022-08-11T14:54:14;27.50;37.50
35127;DHT22;21300;52.006;5.798;2022-08-11T14:57:00;27.60;36.60
35127;DHT22;21300;52.006;5.798;2022-08-11T14:59:28;27.60;38.10
35127;DHT22;21300;52.006;5.798;2022-08-11T15:01:54;27.60;37.40
35127;DHT22;21300;52.006;5.798;2022-08-11T15:04:39;27.60;36.90
35127;DHT22;21300;52.006;5.798;2022-08-11T15:07:05;27.70;37.50
35127;DHT22;21300;52.006;5.798;2022-08-11T15:09:31;27.70;37.00
35127;DHT22;21300;52.006;5.798;2022-08-11T15:11:58;27.70;36.10
35127;DHT22;21300;52.006;5.798;2022-08-11T15:14:36;27.80;36.80
35127;DHT22;21300;52.006;5.798;2022-08-11T15:17:21;27.70;37.50
35127;DHT22;21300;52.006;5.798;2022-08-11T15:19:48;27.70;36.80
35127;DHT22;21300;52.006;5.798;2022-08-11T15:22:33;27.80;36.70
35127;DHT22;21300;52.006;5.798;2022-08-11T15:25:18;27.90;36.30
35127;DHT22;21300;52.006;5.798;2022-08-11T15:27:47;27.90;34.80
35127;DHT22;21300;52.006;5.798;2022-08-11T15:30:32;27.90;35.90
35127;DHT22;21300;52.006;5.798;2022-08-11T15:33:18;27.90;36.20
35127;DHT22;21300;52.006;5.798;2022-08-11T15:36:06;27.80;36.50
35127;DHT22;21300;52.006;5.798;2022-08-11T15:38:57;27.80;36.10
35127;DHT22;21300;52.006;5.798;2022-08-11T15:41:53;27.80;36.10
35127;DHT22;21300;52.006;5.798;2022-08-11T15:44:40;27.80;35.90
35127;DHT22;21300;52.006;5.798;2022-08-11T15:47:28;27.80;36.10
35127;DHT22;21300;52.006;5.798;2022-08-11T15:49:59;27.90;36.50
35127;DHT22;21300;52.006;5.798;2022-08-11T15:52:30;27.80;36.70
35127;DHT22;21300;52.006;5.798;2022-08-11T15:54:58;27.90;35.90
35127;DHT22;21300;52.006;5.798;2022-08-11T15:57:27;27.90;36.10
35127;DHT22;21300;52.006;5.798;2022-08-11T16:00:13;27.90;36.60
35127;DHT22;21300;52.006;5.798;2022-08-11T16:02:59;27.80;36.90
35127;DHT22;21300;52.006;5.798;2022-08-11T16:05:44;27.90;36.30
35127;DHT22;21300;52.006;5.798;2022-08-11T16:08:14;27.90;35.90
35127;DHT22;21300;52.006;5.798;2022-08-11T16:10:41;27.90;36.50
35127;DHT22;21300;52.006;5.798;2022-08-11T16:13:09;27.90;36.50
35127;DHT22;21300;52.006;5.798;2022-08-11T16:15:41;27.90;36.40
35127;DHT22;21300;52.006;5.798;2022-08-11T16:18:32;27.90;36.20
35127;DHT22;21300;52.006;5.798;2022-08-11T16:21:29;28.00;36.80
35127;DHT22;21300;52.006;5.798;2022-08-11T16:23:57;27.90;35.70
35127;DHT22;21300;52.006;5.798;2022-08-11T16:26:24;27.90;36.00
35127;DHT22;21300;52.006;5.798;2022-08-11T16:28:52;27.90;35.80
35127;DHT22;21300;52.006;5.798;2022-08-11T16:31:23;27.90;36.50
35127;DHT22;21300;52.006;5.798;2022-08-11T16:33:51;27.90;36.30
35127;DHT22;21300;52.006;5.798;2022-08-11T16:36:22;27.90;36.20
35127;DHT22;21300;52.006;5.798;2022-08-11T16:39:08;27.90;36.40
35127;DHT22;21300;52.006;5.798;2022-08-11T16:41:36;28.00;34.90
35127;DHT22;21300;52.006;5.798;2022-08-11T16:44:23;28.00;36.30
35127;DHT22;21300;52.006;5.798;2022-08-11T16:47:13;28.00;36.50
35127;DHT22;21300;52.006;5.798;2022-08-11T16:49:48;28.00;36.40
35127;DHT22;21300;52.006;5.798;2022-08-11T16:52:16;28.00;36.30
35127;DHT22;21300;52.006;5.798;2022-08-11T16:54:43;28.00;36.10
35127;DHT22;21300;52.006;5.798;2022-08-11T16:57:15;27.90;36.60
35127;DHT22;21300;52.006;5.798;2022-08-11T17:00:04;27.90;36.40
35127;DHT22;21300;52.006;5.798;2022-08-11T17:02:39;27.90;37.10
35127;DHT22;21300;52.006;5.798;2022-08-11T17:05:24;27.90;35.50
35127;DHT22;21300;52.006;5.798;2022-08-11T17:08:09;27.90;36.40
35127;DHT22;21300;52.006;5.798;2022-08-11T17:10:59;27.90;36.00
35127;DHT22;21300;52.006;5.798;2022-08-11T17:13:59;27.90;36.20
35127;DHT22;21300;52.006;5.798;2022-08-11T17:16:34;27.90;36.60
35127;DHT22;21300;52.006;5.798;2022-08-11T17:19:07;27.90;37.00
35127;DHT22;21300;52.006;5.798;2022-08-11T17:21:46;27.90;36.00
35127;DHT22;21300;52.006;5.798;2022-08-11T17:24:34;27.90;36.60
35127;DHT22;21300;52.006;5.798;2022-08-11T17:27:02;27.90;37.60
35127;DHT22;21300;52.006;5.798;2022-08-11T17:32:12;27.90;37.50
35127;DHT22;21300;52.006;5.798;2022-08-11T17:35:03;27.90;37.80
35127;DHT22;21300;52.006;5.798;2022-08-11T17:37:49;27.80;36.90
35127;DHT22;21300;52.006;5.798;2022-08-11T17:40:22;27.80;37.80
35127;DHT22;21300;52.006;5.798;2022-08-11T17:42:52;27.80;36.30
35127;DHT22;21300;52.006;5.798;2022-08-11T17:45:41;27.80;36.90
35127;DHT22;21300;52.006;5.798;2022-08-11T17:48:31;27.80;36.80
35127;DHT22;21300;52.006;5.798;2022-08-11T17:51:00;27.80;37.10
35127;DHT22;21300;52.006;5.798;2022-08-11T17:53:30;27.80;37.30
35127;DHT22;21300;52.006;5.798;2022-08-11T17:56:17;27.80;37.50
35127;DHT22;21300;52.006;5.798;2022-08-11T17:59:02;27.70;36.60
35127;DHT22;21300;52.006;5.798;2022-08-11T18:01:48;27.70;37.10
35127;DHT22;21300;52.006;5.798;2022-08-11T18:04:15;27.80;37.00
35127;DHT22;21300;52.006;5.798;2022-08-11T18:06:42;27.70;36.70
35127;DHT22;21300;52.006;5.798;2022-08-11T18:09:12;27.70;36.70
35127;DHT22;21300;52.006;5.798;2022-08-11T18:11:59;27.70;36.30
35127;DHT22;21300;52.006;5.798;2022-08-11T18:14:47;27.70;37.20
35127;DHT22;21300;52.006;5.798;2022-08-11T18:17:33;27.60;37.50
35127;DHT22;21300;52.006;5.798;2022-08-11T18:20:19;27.60;36.70
35127;DHT22;21300;52.006;5.798;2022-08-11T18:26:09;27.60;37.10
35127;DHT22;21300;52.006;5.798;2022-08-11T18:28:55;27.50;38.00
35127;DHT22;21300;52.006;5.798;2022-08-11T18:31:45;27.50;38.00
35127;DHT22;21300;52.006;5.798;2022-08-11T18:34:35;27.50;37.70
35127;DHT22;21300;52.006;5.798;2022-08-11T18:37:30;27.50;38.20
35127;DHT22;21300;52.006;5.798;2022-08-11T18:40:19;27.40;38.00
35127;DHT22;21300;52.006;5.798;2022-08-11T18:43:09;27.40;37.70
35127;DHT22;21300;52.006;5.798;2022-08-11T18:46:03;27.40;37.90
35127;DHT22;21300;52.006;5.798;2022-08-11T18:48:50;27.30;38.60
35127;DHT22;21300;52.006;5.798;2022-08-11T18:51:37;27.30;39.90
35127;DHT22;21300;52.006;5.798;2022-08-11T18:54:23;27.30;38.60
35127;DHT22;21300;52.006;5.798;2022-08-11T18:57:09;27.30;40.10
35127;DHT22;21300;52.006;5.798;2022-08-11T18:59:54;27.20;40.70
35127;DHT22;21300;52.006;5.798;2022-08-11T19:02:44;27.20;41.70
35127;DHT22;21300;52.006;5.798;2022-08-11T19:05:31;27.10;41.60
35127;DHT22;21300;52.006;5.798;2022-08-11T19:08:17;27.10;40.70
35127;DHT22;21300;52.006;5.798;2022-08-11T19:11:05;27.10;41.40
35127;DHT22;21300;52.006;5.798;2022-08-11T19:13:50;27.00;42.10
35127;DHT22;21300;52.006;5.798;2022-08-11T19:16:36;27.00;42.90
35127;DHT22;21300;52.006;5.798;2022-08-11T19:19:20;26.90;43.60
35127;DHT22;21300;52.006;5.798;2022-08-11T19:22:07;26.80;43.80
35127;DHT22;21300;52.006;5.798;2022-08-11T19:24:54;26.80;44.10
35127;DHT22;21300;52.006;5.798;2022-08-11T19:27:40;26.70;44.20
35127;DHT22;21300;52.006;5.798;2022-08-11T19:30:26;26.60;44.20
35127;DHT22;21300;52.006;5.798;2022-08-11T19:33:11;26.50;44.50
35127;DHT22;21300;52.006;5.798;2022-08-11T19:35:56;26.40;44.20
35127;DHT22;21300;52.006;5.798;2022-08-11T19:38:41;26.40;43.80
35127;DHT22;21300;52.006;5.798;2022-08-11T19:41:26;26.30;44.50
35127;DHT22;21300;52.006;5.798;2022-08-11T19:44:11;26.20;44.40
35127;DHT22;21300;52.006;5.798;2022-08-11T19:46:57;26.10;44.30
35127;DHT22;21300;52.006;5.798;2022-08-11T19:49:43;26.10;45.20
35127;DHT22;21300;52.006;5.798;2022-08-11T19:52:28;26.10;45.30
35127;DHT22;21300;52.006;5.798;2022-08-11T19:55:13;26.00;44.90